Time;durP1;ratioP1;P1;durP2;ratioP2;P2;SDS_P1;SDS_P2;PMS_P1;PMS_P2;Temp;Humidity;BMP_temperature;BMP_pressure;BME280_temperature;BME280_humidity;BME280_pressure;Samples;Min_cycle;Max_cycle;Signal;HPM_P1;HPM_P2
2022/10/17 00:00:48;;;;;;;0.73;0.73;;;;;;;;;;5084073;28;20199;-84
2022/10/17 00:03:18;;;;;;;1.77;1.67;;;;;;;;;;5076355;28;20190;-84
2022/10/17 00:05:47;;;;;;;1.30;1.30;;;;;;;;;;5094057;28;20197;-84
2022/10/17 00:08:16;;;;;;;3.70;2.03;;;;;;;;;;5091977;28;20319;-84
2022/10/17 00:10:44;;;;;;;3.03;1.63;;;;;;;;;;5092343;28;20198;-84
2022/10/17 00:13:13;;;;;;;3.00;2.80;;;;;;;;;;5091114;28;20220;-84
2022/10/17 00:15:44;;;;;;;7.97;3.27;;;;;;;;;;5081465;28;20210;-84
2022/10/17 00:18:12;;;;;;;1.80;1.70;;;;;;;;;;5086854;28;20309;-84
2022/10/17 00:20:42;;;;;;;5.20;3.37;;;;;;;;;;5086644;28;20246;-84
2022/10/17 00:23:10;;;;;;;6.67;3.00;;;;;;;;;;5085445;28;20205;-84
2022/10/17 00:25:39;;;;;;;2.93;2.73;;;;;;;;;;5086454;28;20233;-84
2022/10/17 00:28:09;;;;;;;9.63;4.40;;;;;;;;;;5084552;28;20200;-84
2022/10/17 00:30:37;;;;;;;1.63;1.53;;;;;;;;;;5085565;28;20206;-84
2022/10/17 00:33:06;;;;;;;1.50;1.47;;;;;;;;;;5081031;28;20199;-84
2022/10/17 00:35:34;;;;;;;3.03;2.73;;;;;;;;;;5078684;28;20202;-84
2022/10/17 00:38:04;;;;;;;2.43;1.70;;;;;;;;;;5092926;28;20268;-84
2022/10/17 00:40:32;;;;;;;1.07;1.00;;;;;;;;;;5078639;28;20204;-84
2022/10/17 00:43:01;;;;;;;1.60;1.23;;;;;;;;;;5082417;28;20289;-85
2022/10/17 00:45:30;;;;;;;2.87;2.50;;;;;;;;;;5093979;28;20337;-85
2022/10/17 00:48:02;;;;;;;1.00;1.00;;;;;;;;;;5076054;28;20200;-85
2022/10/17 00:50:31;;;;;;;4.50;1.90;;;;;;;;;;5088841;28;20228;-84
2022/10/17 00:53:01;;;;;;;5.60;3.37;;;;;;;;;;5076831;28;20222;-84
2022/10/17 00:55:33;;;;;;;4.87;2.23;;;;;;;;;;5107631;28;20200;-84
2022/10/17 00:58:03;;;;;;;1.67;1.57;;;;;;;;;;5082309;28;20209;-84
2022/10/17 01:00:32;;;;;;;1.67;1.57;;;;;;;;;;5094794;28;20283;-85
2022/10/17 01:03:00;;;;;;;2.20;1.77;;;;;;;;;;5084701;28;20225;-85
2022/10/17 01:05:29;;;;;;;2.90;2.63;;;;;;;;;;5088985;28;20217;-84
2022/10/17 01:07:57;;;;;;;2.67;2.47;;;;;;;;;;5097551;28;20272;-84
2022/10/17 01:10:30;;;;;;;2.40;1.50;;;;;;;;;;5090852;28;20321;-85
2022/10/17 01:13:05;;;;;;;5.00;3.50;;;;;;;;;;5086119;28;20239;-85
2022/10/17 01:15:39;;;;;;;3.80;3.40;;;;;;;;;;5080145;28;20193;-85
2022/10/17 01:18:15;;;;;;;4.30;3.90;;;;;;;;;;5101675;28;20207;-84
2022/10/17 01:20:56;;;;;;;4.97;4.00;;;;;;;;;;5094786;28;20209;-85
2022/10/17 01:23:42;;;;;;;7.63;3.97;;;;;;;;;;5093679;28;20246;-84
2022/10/17 01:26:15;;;;;;;5.30;4.80;;;;;;;;;;5080269;28;20235;-85
2022/10/17 01:28:58;;;;;;;5.47;3.80;;;;;;;;;;5095620;28;20284;-84
2022/10/17 01:31:32;;;;;;;3.93;3.37;;;;;;;;;;5081317;28;20230;-85
2022/10/17 01:34:04;;;;;;;4.17;3.47;;;;;;;;;;5113326;28;20436;-85
2022/10/17 01:36:37;;;;;;;7.23;4.10;;;;;;;;;;5094949;28;20288;-85
2022/10/17 01:39:11;;;;;;;4.50;3.60;;;;;;;;;;5095386;28;20205;-85
2022/10/17 01:41:42;;;;;;;9.10;5.70;;;;;;;;;;5083473;28;20330;-85
2022/10/17 01:44:13;;;;;;;5.60;5.10;;;;;;;;;;5075604;28;20258;-85
2022/10/17 01:46:44;;;;;;;4.07;3.30;;;;;;;;;;5075087;28;20229;-85
2022/10/17 01:49:14;;;;;;;3.93;3.40;;;;;;;;;;5084576;28;20206;-85
2022/10/17 01:51:44;;;;;;;2.87;2.50;;;;;;;;;;5098452;28;20205;-85
2022/10/17 01:54:14;;;;;;;4.27;2.93;;;;;;;;;;5090696;28;20211;-84
2022/10/17 01:56:44;;;;;;;5.33;3.77;;;;;;;;;;5081224;28;20205;-85
2022/10/17 01:59:13;;;;;;;4.93;4.53;;;;;;;;;;5116634;28;20248;-85
2022/10/17 02:01:45;;;;;;;5.10;4.40;;;;;;;;;;5084808;28;20234;-85
2022/10/17 02:04:15;;;;;;;4.30;3.87;;;;;;;;;;5098711;28;20364;-85
2022/10/17 02:06:43;;;;;;;3.70;3.40;;;;;;;;;;5098468;28;20213;-85
2022/10/17 02:09:19;;;;;;;8.60;4.03;;;;;;;;;;5098818;28;20224;-85
2022/10/17 02:11:53;;;;;;;2.97;2.70;;;;;;;;;;5102791;28;20220;-85
2022/10/17 02:14:24;;;;;;;6.57;4.77;;;;;;;;;;5084727;28;20290;-85
2022/10/17 02:16:59;;;;;;;3.37;2.97;;;;;;;;;;5103689;28;20217;-85
2022/10/17 02:19:36;;;;;;;4.33;3.93;;;;;;;;;;5102781;28;20209;-85
2022/10/17 02:22:09;;;;;;;3.13;2.90;;;;;;;;;;5098248;28;20265;-85
2022/10/17 02:24:42;;;;;;;6.23;4.80;;;;;;;;;;5092976;28;20201;-85
2022/10/17 02:27:14;;;;;;;2.47;2.20;;;;;;;;;;5109236;28;20225;-85
2022/10/17 02:29:47;;;;;;;4.07;3.33;;;;;;;;;;5078464;28;20202;-85
2022/10/17 02:32:21;;;;;;;4.70;3.57;;;;;;;;;;5092368;28;20264;-85
2022/10/17 02:34:51;;;;;;;2.17;2.03;;;;;;;;;;5098421;28;20237;-85
2022/10/17 02:37:22;;;;;;;5.10;4.17;;;;;;;;;;5095437;28;20225;-85
2022/10/17 02:39:51;;;;;;;3.40;2.97;;;;;;;;;;5087752;28;20217;-85
2022/10/17 02:42:20;;;;;;;2.73;2.10;;;;;;;;;;5097164;28;20186;-85
2022/10/17 02:44:49;;;;;;;0.83;0.83;;;;;;;;;;5086635;28;20229;-85
2022/10/17 02:47:22;;;;;;;1.67;1.57;;;;;;;;;;5082713;28;20259;-85
2022/10/17 02:49:51;;;;;;;7.30;4.77;;;;;;;;;;5103451;28;20206;-85
2022/10/17 02:52:22;;;;;;;4.87;1.67;;;;;;;;;;5101362;28;20213;-85
2022/10/17 02:54:52;;;;;;;0.90;0.90;;;;;;;;;;5097413;28;20202;-85
2022/10/17 02:57:25;;;;;;;8.67;5.93;;;;;;;;;;5097524;28;20193;-85
2022/10/17 02:59:54;;;;;;;2.90;2.70;;;;;;;;;;5114357;28;20236;-85
2022/10/17 03:02:23;;;;;;;0.73;0.73;;;;;;;;;;5103382;28;20231;-85
2022/10/17 03:04:52;;;;;;;8.97;6.40;;;;;;;;;;5096755;28;20206;-85
2022/10/17 03:07:20;;;;;;;15.03;11.90;;;;;;;;;;5097528;28;20211;-85
2022/10/17 03:09:48;;;;;;;3.03;2.83;;;;;;;;;;5094961;28;20220;-85
2022/10/17 03:12:17;;;;;;;11.10;9.97;;;;;;;;;;5086731;28;20211;-85
2022/10/17 03:14:45;;;;;;;11.97;10.20;;;;;;;;;;5081373;28;20232;-85
2022/10/17 03:17:13;;;;;;;11.50;10.33;;;;;;;;;;5095325;28;20207;-85
2022/10/17 03:19:43;;;;;;;9.63;8.60;;;;;;;;;;5108238;28;20212;-85
2022/10/17 03:22:12;;;;;;;10.97;9.73;;;;;;;;;;5077601;28;20227;-85
2022/10/17 03:24:40;;;;;;;15.63;11.10;;;;;;;;;;5090565;28;20268;-85
2022/10/17 03:27:08;;;;;;;12.70;10.80;;;;;;;;;;5077733;28;20229;-85
2022/10/17 03:29:37;;;;;;;12.83;11.57;;;;;;;;;;5095707;28;20314;-85
2022/10/17 03:32:05;;;;;;;9.10;5.67;;;;;;;;;;5097317;28;20189;-85
2022/10/17 03:34:33;;;;;;;14.07;9.80;;;;;;;;;;5096561;28;20221;-85
2022/10/17 03:37:04;;;;;;;14.27;12.63;;;;;;;;;;5096869;28;20228;-85
2022/10/17 03:39:32;;;;;;;11.13;7.53;;;;;;;;;;5114107;28;20218;-85
2022/10/17 03:42:00;;;;;;;13.20;10.73;;;;;;;;;;5084025;28;20196;-85
2022/10/17 03:44:29;;;;;;;12.63;9.37;;;;;;;;;;5102061;28;20243;-85
2022/10/17 03:46:57;;;;;;;12.33;10.40;;;;;;;;;;5094748;28;20233;-85
2022/10/17 03:49:25;;;;;;;14.40;12.30;;;;;;;;;;5084887;28;20290;-85
2022/10/17 03:51:54;;;;;;;12.23;9.40;;;;;;;;;;5096531;28;20339;-85
2022/10/17 03:54:23;;;;;;;14.63;11.97;;;;;;;;;;5087830;28;20323;-85
2022/10/17 03:56:52;;;;;;;13.87;10.70;;;;;;;;;;5092201;28;20255;-85
2022/10/17 03:59:20;;;;;;;10.70;9.57;;;;;;;;;;5096383;28;20217;-85
2022/10/17 04:01:49;;;;;;;10.90;9.80;;;;;;;;;;5111296;28;20244;-85
2022/10/17 04:04:17;;;;;;;9.57;8.50;;;;;;;;;;5094140;28;20264;-85
2022/10/17 04:06:45;;;;;;;14.93;13.37;;;;;;;;;;5080462;28;20202;-85
2022/10/17 04:09:14;;;;;;;12.83;10.70;;;;;;;;;;5096322;28;20206;-85
2022/10/17 04:11:44;;;;;;;11.30;9.80;;;;;;;;;;5077989;28;20220;-85
2022/10/17 04:14:13;;;;;;;15.70;12.73;;;;;;;;;;5088347;28;20203;-85
2022/10/17 04:16:41;;;;;;;14.13;11.93;;;;;;;;;;5096283;28;20206;-85
2022/10/17 04:19:12;;;;;;;14.87;12.80;;;;;;;;;;5083134;28;20244;-85
2022/10/17 04:21:41;;;;;;;13.03;11.40;;;;;;;;;;5095885;28;20257;-85
2022/10/17 04:24:10;;;;;;;14.23;12.57;;;;;;;;;;5100086;28;20232;-85
2022/10/17 04:26:39;;;;;;;14.70;13.30;;;;;;;;;;5105352;27;20225;-85
2022/10/17 04:29:08;;;;;;;12.77;11.17;;;;;;;;;;5112093;28;20263;-84
2022/10/17 04:31:37;;;;;;;12.60;10.23;;;;;;;;;;5084925;28;20210;-84
2022/10/17 04:34:05;;;;;;;16.87;10.97;;;;;;;;;;5113558;28;20206;-84
2022/10/17 04:36:33;;;;;;;14.23;12.73;;;;;;;;;;5095787;28;20267;-84
2022/10/17 04:39:03;;;;;;;15.27;13.77;;;;;;;;;;5082193;28;20206;-84
2022/10/17 04:41:32;;;;;;;16.00;13.20;;;;;;;;;;5094909;28;20194;-84
2022/10/17 04:44:00;;;;;;;13.93;12.43;;;;;;;;;;5082381;28;20243;-84
2022/10/17 04:46:30;;;;;;;13.47;12.07;;;;;;;;;;5092243;28;20326;-84
2022/10/17 04:48:58;;;;;;;14.33;13.03;;;;;;;;;;5080524;28;20219;-85
2022/10/17 04:51:27;;;;;;;15.37;13.77;;;;;;;;;;5081175;28;20291;-84
2022/10/17 04:53:55;;;;;;;17.67;14.13;;;;;;;;;;5089554;28;20234;-84
2022/10/17 04:56:24;;;;;;;12.20;10.47;;;;;;;;;;5092517;28;20220;-85
2022/10/17 04:58:52;;;;;;;12.53;10.83;;;;;;;;;;5092069;28;20260;-84
2022/10/17 05:01:21;;;;;;;14.83;8.07;;;;;;;;;;5080157;28;20274;-85
2022/10/17 05:03:52;;;;;;;13.20;10.30;;;;;;;;;;5085399;28;20283;-85
2022/10/17 05:06:21;;;;;;;13.70;11.63;;;;;;;;;;5072582;28;20197;-84
2022/10/17 05:08:49;;;;;;;11.00;9.90;;;;;;;;;;5086033;28;20200;-84
2022/10/17 05:11:19;;;;;;;12.80;9.90;;;;;;;;;;5073477;28;20266;-84
2022/10/17 05:13:52;;;;;;;11.17;8.77;;;;;;;;;;5092187;28;20228;-84
2022/10/17 05:16:21;;;;;;;10.13;8.60;;;;;;;;;;5079340;28;20200;-84
2022/10/17 05:18:52;;;;;;;11.63;10.33;;;;;;;;;;5083338;28;20191;-85
2022/10/17 05:21:22;;;;;;;11.13;8.17;;;;;;;;;;5085375;28;20244;-84
2022/10/17 05:23:50;;;;;;;10.33;9.17;;;;;;;;;;5076386;28;20232;-84
2022/10/17 05:26:19;;;;;;;8.47;7.57;;;;;;;;;;5080510;28;20220;-85
2022/10/17 05:28:51;;;;;;;10.30;8.20;;;;;;;;;;5083907;28;20204;-84
2022/10/17 05:31:19;;;;;;;9.93;8.40;;;;;;;;;;5095611;28;20253;-84
2022/10/17 05:33:48;;;;;;;9.00;6.43;;;;;;;;;;5082999;28;20207;-84
2022/10/17 05:36:16;;;;;;;14.67;9.30;;;;;;;;;;5083370;28;20204;-84
2022/10/17 05:38:49;;;;;;;8.90;6.27;;;;;;;;;;5095513;28;20264;-84
2022/10/17 05:41:18;;;;;;;3.97;3.20;;;;;;;;;;5083804;28;20232;-84
2022/10/17 05:43:46;;;;;;;10.47;7.13;;;;;;;;;;5082100;28;20229;-84
2022/10/17 05:46:15;;;;;;;8.87;7.20;;;;;;;;;;5099531;28;20327;-84
2022/10/17 05:48:43;;;;;;;10.73;7.93;;;;;;;;;;5094720;28;20206;-83
2022/10/17 05:51:12;;;;;;;10.27;9.33;;;;;;;;;;5089796;28;20228;-84
2022/10/17 05:53:42;;;;;;;10.60;9.00;;;;;;;;;;5094912;28;20209;-83
2022/10/17 05:56:13;;;;;;;9.50;7.97;;;;;;;;;;5098839;28;20203;-83
2022/10/17 05:58:44;;;;;;;7.67;6.93;;;;;;;;;;5103719;28;20227;-83
2022/10/17 06:01:19;;;;;;;11.80;7.90;;;;;;;;;;5098243;28;20213;-83
2022/10/17 06:03:47;;;;;;;12.57;9.20;;;;;;;;;;5097175;28;20212;-83
2022/10/17 06:06:16;;;;;;;12.87;8.50;;;;;;;;;;5092024;28;20194;-83
2022/10/17 06:08:45;;;;;;;11.63;8.77;;;;;;;;;;5078952;28;20261;-83
2022/10/17 06:11:14;;;;;;;8.77;6.60;;;;;;;;;;5092004;28;20196;-83
2022/10/17 06:13:43;;;;;;;11.43;6.97;;;;;;;;;;5078397;28;20198;-83
2022/10/17 06:16:11;;;;;;;6.93;5.03;;;;;;;;;;5080268;28;20199;-83
2022/10/17 06:18:40;;;;;;;9.63;8.30;;;;;;;;;;5098103;28;20257;-83
2022/10/17 06:21:09;;;;;;;8.47;6.77;;;;;;;;;;5097078;28;20239;-83
2022/10/17 06:23:38;;;;;;;8.33;7.00;;;;;;;;;;5097833;28;20203;-83
2022/10/17 06:26:07;;;;;;;8.50;6.83;;;;;;;;;;5093983;28;20233;-85
2022/10/17 06:28:37;;;;;;;7.77;6.17;;;;;;;;;;5089278;28;20228;-84
2022/10/17 06:31:06;;;;;;;7.20;6.50;;;;;;;;;;5096936;28;20205;-84
2022/10/17 06:33:35;;;;;;;5.50;5.00;;;;;;;;;;5103974;28;20202;-84
2022/10/17 06:36:04;;;;;;;8.13;6.80;;;;;;;;;;5097293;28;20255;-84
2022/10/17 06:38:34;;;;;;;7.33;6.53;;;;;;;;;;5097020;28;20198;-84
2022/10/17 06:41:06;;;;;;;9.33;7.87;;;;;;;;;;5097161;28;20226;-84
2022/10/17 06:43:36;;;;;;;8.27;6.97;;;;;;;;;;5085587;28;20203;-84
2022/10/17 06:46:05;;;;;;;10.07;8.03;;;;;;;;;;5074300;28;20239;-84
2022/10/17 06:48:34;;;;;;;7.53;6.43;;;;;;;;;;5089144;28;20201;-84
2022/10/17 06:51:03;;;;;;;7.57;6.77;;;;;;;;;;5086755;28;20217;-84
2022/10/17 06:53:32;;;;;;;10.63;8.70;;;;;;;;;;5074495;28;20203;-84
2022/10/17 06:56:02;;;;;;;13.13;9.33;;;;;;;;;;5083429;28;20247;-84
2022/10/17 06:58:35;;;;;;;26.00;9.37;;;;;;;;;;5091760;28;20198;-84
2022/10/17 07:01:06;;;;;;;12.20;8.30;;;;;;;;;;5084734;28;20216;-84
2022/10/17 07:03:36;;;;;;;9.83;7.93;;;;;;;;;;5094043;28;20196;-84
2022/10/17 07:06:05;;;;;;;6.13;5.23;;;;;;;;;;5094012;28;20208;-84
2022/10/17 07:08:33;;;;;;;7.67;6.50;;;;;;;;;;5075934;28;20207;-84
2022/10/17 07:11:12;;;;;;;10.57;9.00;;;;;;;;;;5074461;28;20200;-84
2022/10/17 07:13:40;;;;;;;11.77;9.87;;;;;;;;;;5081483;28;20238;-84
2022/10/17 07:16:10;;;;;;;12.13;9.33;;;;;;;;;;5093492;28;20212;-84
2022/10/17 07:18:41;;;;;;;14.83;11.27;;;;;;;;;;5082146;28;20211;-84
2022/10/17 07:21:10;;;;;;;12.60;11.30;;;;;;;;;;5091345;28;20222;-84
2022/10/17 07:23:40;;;;;;;13.63;11.63;;;;;;;;;;5074536;28;20201;-83
2022/10/17 07:26:10;;;;;;;14.73;11.23;;;;;;;;;;5074275;28;20200;-83
2022/10/17 07:28:40;;;;;;;14.43;11.57;;;;;;;;;;5083526;28;20204;-84
2022/10/17 07:31:10;;;;;;;14.57;9.63;;;;;;;;;;5089499;28;20287;-84
2022/10/17 07:33:39;;;;;;;10.00;7.93;;;;;;;;;;5073627;28;20200;-84
2022/10/17 07:36:08;;;;;;;14.33;10.20;;;;;;;;;;5077862;28;20205;-84
2022/10/17 07:38:37;;;;;;;10.20;7.37;;;;;;;;;;5093755;28;20250;-84
2022/10/17 07:41:06;;;;;;;13.83;11.23;;;;;;;;;;5079432;28;20239;-84
2022/10/17 07:43:36;;;;;;;12.87;10.97;;;;;;;;;;5080874;28;20200;-84
2022/10/17 07:46:05;;;;;;;13.33;11.33;;;;;;;;;;5116823;28;20241;-84
2022/10/17 07:48:35;;;;;;;12.30;9.00;;;;;;;;;;5083302;28;20290;-84
2022/10/17 07:51:04;;;;;;;4.60;4.20;;;;;;;;;;5101039;28;20211;-84
2022/10/17 07:53:33;;;;;;;11.13;7.87;;;;;;;;;;5095699;28;20212;-84
2022/10/17 07:56:11;;;;;;;11.77;10.57;;;;;;;;;;5086844;28;20198;-84
2022/10/17 07:58:43;;;;;;;13.40;9.90;;;;;;;;;;5098127;27;20236;-87
2022/10/17 08:01:14;;;;;;;10.27;9.27;;;;;;;;;;5086748;28;20241;-85
2022/10/17 08:03:48;;;;;;;8.77;7.87;;;;;;;;;;5087753;28;20221;-85
2022/10/17 08:06:17;;;;;;;9.67;6.83;;;;;;;;;;5087429;28;20228;-84
2022/10/17 08:08:45;;;;;;;7.00;5.47;;;;;;;;;;5086907;28;20210;-86
2022/10/17 08:11:15;;;;;;;14.50;8.80;;;;;;;;;;5099393;28;20228;-87
2022/10/17 08:13:44;;;;;;;8.33;7.37;;;;;;;;;;5104402;27;20208;-85
2022/10/17 08:16:13;;;;;;;15.00;8.60;;;;;;;;;;5092787;28;20218;-83
2022/10/17 08:18:44;;;;;;;9.77;8.33;;;;;;;;;;5104559;27;20231;-86
2022/10/17 08:21:14;;;;;;;8.47;6.87;;;;;;;;;;5102216;27;20223;-86
2022/10/17 08:23:52;;;;;;;7.50;6.80;;;;;;;;;;5088604;28;20199;-83
2022/10/17 08:26:20;;;;;;;10.90;8.03;;;;;;;;;;5087104;28;20203;-84
2022/10/17 08:28:53;;;;;;;5.53;4.97;;;;;;;;;;5089868;28;20224;-83
2022/10/17 08:31:22;;;;;;;8.70;7.13;;;;;;;;;;5089550;28;20211;-82
2022/10/17 08:33:51;;;;;;;9.43;8.53;;;;;;;;;;5079262;28;20283;-82
2022/10/17 08:36:21;;;;;;;7.20;5.90;;;;;;;;;;5086798;28;20200;-83
2022/10/17 08:38:49;;;;;;;9.47;7.93;;;;;;;;;;5084271;28;20287;-83
2022/10/17 08:41:28;;;;;;;13.13;10.00;;;;;;;;;;5107087;28;20231;-83
2022/10/17 08:44:11;;;;;;;12.93;7.37;;;;;;;;;;5083573;28;20204;-86
2022/10/17 08:46:43;;;;;;;5.13;2.77;;;;;;;;;;5082400;28;20335;-85
2022/10/17 08:49:13;;;;;;;3.97;3.33;;;;;;;;;;5079294;28;20295;-84
2022/10/17 08:51:48;;;;;;;7.47;5.47;;;;;;;;;;5096936;28;20201;-86
2022/10/17 08:54:18;;;;;;;6.07;5.17;;;;;;;;;;5080730;28;20238;-86
2022/10/17 08:56:50;;;;;;;2.83;2.13;;;;;;;;;;5079996;28;20685;-84
2022/10/17 08:59:22;;;;;;;8.50;7.60;;;;;;;;;;5079550;28;20197;-86
2022/10/17 09:01:53;;;;;;;10.10;6.00;;;;;;;;;;5081053;28;20375;-86
2022/10/17 09:04:34;;;;;;;3.63;3.17;;;;;;;;;;5081358;28;20204;-86
2022/10/17 09:07:06;;;;;;;2.20;2.10;;;;;;;;;;5083680;28;20205;-88
2022/10/17 09:09:39;;;;;;;4.83;2.73;;;;;;;;;;5082871;28;20310;-87
2022/10/17 09:12:16;;;;;;;1.90;1.80;;;;;;;;;;5085875;28;20200;-89
2022/10/17 09:14:54;;;;;;;2.63;2.43;;;;;;;;;;5087841;28;20200;-88
2022/10/17 09:17:37;;;;;;;3.03;2.60;;;;;;;;;;5083580;28;20205;-88
2022/10/17 09:20:14;;;;;;;8.20;5.30;;;;;;;;;;5082770;28;20231;-90
2022/10/17 09:23:01;;;;;;;7.50;6.70;;;;;;;;;;5081890;28;20246;-91
2022/10/17 09:25:52;;;;;;;3.40;2.13;;;;;;;;;;5077738;28;20240;-87
2022/10/17 09:28:28;;;;;;;2.63;2.13;;;;;;;;;;5083685;28;20205;-87
2022/10/17 09:31:03;;;;;;;8.90;4.40;;;;;;;;;;5082991;28;20202;-89
2022/10/17 09:33:38;;;;;;;2.77;2.03;;;;;;;;;;5083283;28;20215;-90
2022/10/17 09:36:28;;;;;;;0.80;0.80;;;;;;;;;;5087494;28;20235;-90
2022/10/17 09:39:13;;;;;;;3.23;2.87;;;;;;;;;;5081626;28;20216;-88
2022/10/17 09:41:45;;;;;;;1.23;1.13;;;;;;;;;;5079852;28;20303;-85
2022/10/17 09:44:16;;;;;;;10.30;2.37;;;;;;;;;;5086057;28;20201;-84
2022/10/17 09:46:50;;;;;;;3.87;2.30;;;;;;;;;;5073250;28;20287;-87
2022/10/17 09:49:20;;;;;;;3.67;3.37;;;;;;;;;;5074308;28;20211;-85
2022/10/17 09:51:49;;;;;;;1.43;1.33;;;;;;;;;;5078977;28;20285;-86
2022/10/17 09:54:23;;;;;;;2.63;2.27;;;;;;;;;;5070747;28;20208;-87
2022/10/17 09:56:59;;;;;;;2.53;1.73;;;;;;;;;;5071952;28;20204;-87
2022/10/17 09:59:32;;;;;;;3.50;2.27;;;;;;;;;;5085455;28;20206;-85
2022/10/17 10:02:15;;;;;;;2.20;1.97;;;;;;;;;;5077662;28;20208;-83
2022/10/17 10:04:55;;;;;;;9.53;3.73;;;;;;;;;;5069962;28;20213;-85
2022/10/17 10:07:38;;;;;;;10.53;3.10;;;;;;;;;;5066297;28;20293;-87
2022/10/17 10:10:26;;;;;;;2.30;2.10;;;;;;;;;;5070399;28;20252;-85
2022/10/17 10:13:07;;;;;;;5.90;2.70;;;;;;;;;;5069380;28;20225;-84
2022/10/17 10:15:39;;;;;;;2.80;2.20;;;;;;;;;;5066688;28;20206;-85
2022/10/17 10:18:35;;;;;;;2.43;1.70;;;;;;;;;;5069497;28;20198;-87
2022/10/17 10:21:09;;;;;;;2.47;1.73;;;;;;;;;;5050774;28;20222;-88
2022/10/17 10:23:39;;;;;;;2.53;1.23;;;;;;;;;;5074408;28;20214;-84
2022/10/17 10:26:30;;;;;;;3.37;0.90;;;;;;;;;;5069476;28;20202;-83
2022/10/17 10:29:00;;;;;;;1.27;1.17;;;;;;;;;;5072843;28;20230;-83
2022/10/17 10:31:30;;;;;;;5.20;2.63;;;;;;;;;;5070349;28;20206;-82
2022/10/17 10:34:02;;;;;;;1.70;1.60;;;;;;;;;;5068217;28;20190;-82
2022/10/17 10:36:59;;;;;;;1.73;1.63;;;;;;;;;;5074224;28;20198;-82
2022/10/17 10:39:34;;;;;;;4.37;2.23;;;;;;;;;;5022690;28;20210;-82
2022/10/17 10:42:07;;;;;;;6.07;3.20;;;;;;;;;;5069228;28;20190;-82
2022/10/17 10:44:40;;;;;;;2.80;1.27;;;;;;;;;;5073557;28;20224;-83
2022/10/17 10:47:15;;;;;;;1.20;1.13;;;;;;;;;;5068721;28;20261;-81
2022/10/17 10:49:44;;;;;;;2.13;2.03;;;;;;;;;;5059648;28;20217;-82
2022/10/17 10:52:16;;;;;;;3.27;1.77;;;;;;;;;;5060886;28;20198;-82
2022/10/17 10:54:47;;;;;;;1.53;1.43;;;;;;;;;;5063729;28;20250;-82
2022/10/17 10:57:19;;;;;;;4.90;3.17;;;;;;;;;;5071949;28;20209;-83
2022/10/17 10:59:54;;;;;;;1.53;0.90;;;;;;;;;;5057973;28;20207;-83
2022/10/17 11:02:25;;;;;;;1.53;1.40;;;;;;;;;;5066779;28;20228;-82
2022/10/17 11:04:56;;;;;;;3.40;1.30;;;;;;;;;;5070126;28;20201;-83
2022/10/17 11:07:28;;;;;;;1.77;1.67;;;;;;;;;;5070822;28;20206;-82
2022/10/17 11:10:01;;;;;;;2.03;1.90;;;;;;;;;;5065888;28;20204;-83
2022/10/17 11:12:35;;;;;;;0.37;0.37;;;;;;;;;;5058688;28;20228;-82
2022/10/17 11:15:06;;;;;;;4.10;2.57;;;;;;;;;;5056206;28;20205;-82
2022/10/17 11:17:37;;;;;;;2.53;2.03;;;;;;;;;;5060582;28;20208;-82
2022/10/17 11:20:13;;;;;;;5.20;3.40;;;;;;;;;;5064695;28;20237;-82
2022/10/17 11:22:43;;;;;;;4.13;3.60;;;;;;;;;;5070040;28;20204;-82
2022/10/17 11:25:20;;;;;;;1.30;1.20;;;;;;;;;;5072843;28;20208;-82
2022/10/17 11:27:50;;;;;;;6.60;1.77;;;;;;;;;;5072924;28;20223;-82
2022/10/17 11:30:19;;;;;;;4.33;2.63;;;;;;;;;;5084582;28;20201;-82
2022/10/17 11:32:50;;;;;;;3.70;3.17;;;;;;;;;;5069987;28;20217;-82
2022/10/17 11:35:21;;;;;;;6.83;2.50;;;;;;;;;;5072954;28;20208;-82
2022/10/17 11:37:51;;;;;;;3.60;1.73;;;;;;;;;;5068714;28;20206;-82
2022/10/17 11:40:23;;;;;;;4.93;2.67;;;;;;;;;;5053427;28;20202;-83
2022/10/17 11:42:55;;;;;;;3.70;2.47;;;;;;;;;;5061842;28;20245;-82
2022/10/17 11:45:27;;;;;;;5.73;2.73;;;;;;;;;;5090178;28;20208;-82
2022/10/17 11:48:01;;;;;;;3.10;1.83;;;;;;;;;;5097441;28;20317;-82
2022/10/17 11:50:32;;;;;;;4.73;2.33;;;;;;;;;;5092392;28;20219;-81
2022/10/17 11:53:24;;;;;;;4.33;3.43;;;;;;;;;;5089421;28;20198;-82
2022/10/17 11:55:53;;;;;;;6.63;1.67;;;;;;;;;;5084449;28;20196;-82
2022/10/17 11:58:30;;;;;;;7.40;1.90;;;;;;;;;;5086755;28;20199;-81
2022/10/17 12:01:06;;;;;;;1.70;1.43;;;;;;;;;;5095273;28;20196;-82
2022/10/17 12:03:43;;;;;;;4.40;1.13;;;;;;;;;;5080544;28;20206;-82
2022/10/17 12:06:15;;;;;;;0.93;0.93;;;;;;;;;;5096085;28;20264;-82
2022/10/17 12:08:48;;;;;;;6.13;1.13;;;;;;;;;;5090485;28;20192;-82
2022/10/17 12:11:24;;;;;;;2.77;1.87;;;;;;;;;;5085616;28;20207;-82
2022/10/17 12:13:55;;;;;;;3.20;1.77;;;;;;;;;;5088344;28;20201;-82
2022/10/17 12:16:39;;;;;;;3.93;1.53;;;;;;;;;;5105968;28;20195;-81
2022/10/17 12:19:21;;;;;;;2.73;1.43;;;;;;;;;;5088593;28;20234;-81
2022/10/17 12:21:56;;;;;;;3.27;1.63;;;;;;;;;;5101811;28;20220;-82
2022/10/17 12:24:45;;;;;;;5.50;1.13;;;;;;;;;;5090741;28;20208;-82
2022/10/17 12:27:38;;;;;;;2.90;2.40;;;;;;;;;;5067311;28;20204;-82
2022/10/17 12:30:40;;;;;;;3.00;2.03;;;;;;;;;;5102393;28;20299;-83
2022/10/17 12:33:21;;;;;;;6.80;2.57;;;;;;;;;;5090154;28;20205;-82
2022/10/17 12:35:50;;;;;;;3.50;2.10;;;;;;;;;;5089056;28;20212;-83
2022/10/17 12:38:25;;;;;;;4.13;2.23;;;;;;;;;;5087634;28;20195;-86
2022/10/17 12:41:01;;;;;;;3.57;1.57;;;;;;;;;;5093078;28;20255;-85
2022/10/17 12:43:57;;;;;;;6.47;2.70;;;;;;;;;;5089180;28;20279;-85
2022/10/17 12:46:43;;;;;;;4.90;1.40;;;;;;;;;;5094263;28;20275;-85
2022/10/17 12:49:37;;;;;;;1.53;1.43;;;;;;;;;;5094397;28;20206;-85
2022/10/17 12:52:17;;;;;;;2.73;1.77;;;;;;;;;;5091622;28;20208;-85
2022/10/17 12:54:50;;;;;;;2.00;1.83;;;;;;;;;;5095409;28;20283;-85
2022/10/17 12:57:41;;;;;;;4.57;2.07;;;;;;;;;;5079991;28;20197;-84
2022/10/17 13:00:21;;;;;;;2.43;2.20;;;;;;;;;;5085209;28;20201;-85
2022/10/17 13:02:50;;;;;;;3.73;1.90;;;;;;;;;;5095120;28;20202;-84
2022/10/17 13:05:25;;;;;;;1.50;1.30;;;;;;;;;;5091690;28;20208;-84
2022/10/17 13:07:54;;;;;;;1.83;1.40;;;;;;;;;;5083145;28;20290;-84
2022/10/17 13:10:24;;;;;;;2.00;1.40;;;;;;;;;;5086714;28;20199;-84
2022/10/17 13:12:55;;;;;;;2.40;2.30;;;;;;;;;;5092485;28;20197;-84
2022/10/17 13:15:23;;;;;;;2.30;1.30;;;;;;;;;;5075578;28;20208;-84
2022/10/17 13:18:00;;;;;;;0.83;0.83;;;;;;;;;;5088955;28;20196;-84
2022/10/17 13:20:31;;;;;;;0.97;0.90;;;;;;;;;;5105227;28;20247;-84
2022/10/17 13:23:03;;;;;;;8.47;1.67;;;;;;;;;;5081949;28;20199;-84
2022/10/17 13:25:34;;;;;;;6.13;1.90;;;;;;;;;;5076041;28;20212;-84
2022/10/17 13:28:10;;;;;;;3.17;1.40;;;;;;;;;;5088312;28;20209;-85
2022/10/17 13:30:39;;;;;;;2.13;1.93;;;;;;;;;;5089274;28;20196;-84
2022/10/17 13:33:19;;;;;;;2.33;1.83;;;;;;;;;;5090237;28;20211;-85
2022/10/17 13:35:49;;;;;;;3.47;2.10;;;;;;;;;;5079379;28;20271;-85
2022/10/17 13:38:35;;;;;;;1.83;1.70;;;;;;;;;;5105880;28;20213;-84
2022/10/17 13:41:12;;;;;;;6.30;2.67;;;;;;;;;;5091666;28;20201;-84
2022/10/17 13:44:02;;;;;;;4.13;2.10;;;;;;;;;;5093817;28;20214;-84
2022/10/17 13:46:32;;;;;;;2.53;1.70;;;;;;;;;;5098512;28;20314;-84
2022/10/17 13:49:12;;;;;;;4.03;2.87;;;;;;;;;;5093476;28;20207;-84
2022/10/17 13:51:45;;;;;;;9.53;3.10;;;;;;;;;;5090047;28;20220;-84
2022/10/17 13:54:20;;;;;;;2.23;1.67;;;;;;;;;;5087428;28;20192;-85
2022/10/17 13:56:56;;;;;;;3.63;1.90;;;;;;;;;;5094618;28;20206;-84
2022/10/17 13:59:26;;;;;;;0.83;0.83;;;;;;;;;;5084818;28;20187;-85
2022/10/17 14:01:55;;;;;;;6.77;2.10;;;;;;;;;;5095536;28;20204;-85
2022/10/17 14:04:24;;;;;;;4.43;1.87;;;;;;;;;;5098351;28;20216;-84
2022/10/17 14:06:54;;;;;;;6.17;2.50;;;;;;;;;;5098092;28;20200;-84
2022/10/17 14:09:24;;;;;;;2.37;1.80;;;;;;;;;;5082202;28;20196;-85
2022/10/17 14:12:01;;;;;;;3.40;2.10;;;;;;;;;;5097474;28;20284;-84
2022/10/17 14:14:30;;;;;;;4.03;1.77;;;;;;;;;;5095443;28;20200;-84
2022/10/17 14:17:24;;;;;;;9.50;3.20;;;;;;;;;;5097587;28;20204;-83
2022/10/17 14:19:54;;;;;;;2.63;0.90;;;;;;;;;;5089952;28;20221;-84
2022/10/17 14:22:44;;;;;;;0.73;0.73;;;;;;;;;;5079033;28;20204;-84
2022/10/17 14:25:28;;;;;;;1.90;1.60;;;;;;;;;;5094386;28;20228;-84
2022/10/17 14:28:06;;;;;;;6.57;2.07;;;;;;;;;;5086199;28;20196;-85
2022/10/17 14:30:36;;;;;;;4.10;1.73;;;;;;;;;;5115511;28;20211;-85
2022/10/17 14:33:27;;;;;;;3.50;1.27;;;;;;;;;;5083516;28;20290;-85
2022/10/17 14:35:56;;;;;;;10.07;0.97;;;;;;;;;;5081537;28;20297;-84
2022/10/17 14:38:28;;;;;;;0.87;0.87;;;;;;;;;;5089435;28;20229;-84
2022/10/17 14:40:59;;;;;;;4.73;2.67;;;;;;;;;;5090107;28;20292;-85
2022/10/17 14:43:53;;;;;;;1.57;1.00;;;;;;;;;;5108350;28;20194;-84
2022/10/17 14:46:22;;;;;;;1.20;1.13;;;;;;;;;;5089234;28;20231;-84
2022/10/17 14:49:00;;;;;;;5.20;1.27;;;;;;;;;;5085595;28;20203;-85
2022/10/17 14:51:29;;;;;;;1.20;1.07;;;;;;;;;;5081830;28;20226;-84
2022/10/17 14:54:20;;;;;;;3.10;1.47;;;;;;;;;;5095225;28;20209;-84
2022/10/17 14:56:55;;;;;;;2.47;1.80;;;;;;;;;;5095073;28;20239;-85
2022/10/17 14:59:24;;;;;;;5.30;2.70;;;;;;;;;;5092703;28;20246;-85
2022/10/17 15:02:13;;;;;;;2.13;1.80;;;;;;;;;;5097152;28;20296;-85
2022/10/17 15:04:42;;;;;;;1.43;1.33;;;;;;;;;;5096978;28;20664;-84
2022/10/17 15:07:13;;;;;;;1.37;1.20;;;;;;;;;;5091488;28;20201;-83
2022/10/17 15:09:43;;;;;;;3.60;1.00;;;;;;;;;;5097057;28;20292;-84